Latest Weather Observations for Roma

IDQ60801

Issued at 9:32 am EST Wednesday 1 April 2015 (issued every 30 minutes, with the page automatically refreshed every 10 minutes)

About weather observations | Map of weather stations | Latest weather observations for QLD | Other Formats
Station Details ID: 043091 Name: ROMA AIRPORT Lat: -26.55 Lon: 148.77 Height: 307.38 m
Data from the previous 72 hours. | See also: Recent months at Roma
Date/Time
EST
Temp
°C
App
Temp
°C
Dew
Point
Rel
Hum
%
Delta-T
°C
Wind Press
QNH
hPa
Press
MSL
hPa
Rain
since 9 am
mm
Dir
 
Spd
km/h
Gust
km/h
Spd
kts
Gust
kts
01/09:30am 24.0 22.5 14.1 54 5.9 E 15 20 8 11 1021.5 1019.9 0.0
01/09:00am 23.4 22.3 15.2 60 5.0 E 15 20 8 11 1021.5 1019.9 0.0
01/08:30am 22.0 20.1 15.1 65 4.1 E 19 24 10 13 1021.4 1019.8 0.0
01/08:00am 20.6 19.5 15.2 71 3.2 E 15 20 8 11 1021.4 1019.8 0.0
01/07:30am 18.5 18.2 15.4 82 1.8 ESE 11 13 6 7 1021.2 1019.6 0.0
01/07:00am 16.8 16.3 15.0 89 1.1 ESE 11 13 6 7 1020.9 1019.3 0.0
01/06:30am 15.3 14.9 14.0 92 0.7 ESE 9 11 5 6 1020.6 1018.9 0.0
01/06:00am 14.9 16.0 13.4 91 0.8 CALM 0 2 0 1 1020.4 1018.8 0.0
01/05:30am 15.4 16.6 13.9 91 0.9 CALM 0 0 0 0 1020.2 1018.6 0.0
01/05:00am 15.4 15.3 13.9 91 0.9 SE 7 9 4 5 1020.0 1018.4 0.0
01/04:30am 15.1 14.8 13.3 89 1.0 SE 7 11 4 6 1019.5 1017.9 0.0
01/04:00am 15.5 14.6 13.7 89 1.0 ESE 11 13 6 7 1019.4 1017.8 0.0
01/03:30am 15.6 14.7 13.6 88 1.1 SE 11 13 6 7 1019.5 1017.9 0.0
01/03:00am 16.4 16.5 14.4 88 1.2 SSE 7 9 4 5 1019.8 1018.2 0.0
01/02:30am 15.6 15.4 13.6 88 1.1 S 7 7 4 4 1019.9 1018.3 0.0
01/02:00am 15.7 15.4 13.4 86 1.3 NE 7 9 4 5 1019.9 1018.3 0.0
01/01:30am 16.9 18.0 14.7 87 1.3 N 2 6 1 3 1020.2 1018.6 0.0
01/01:00am 16.6 17.8 13.9 84 1.5 CALM 0 2 0 1 1020.6 1018.9 0.0
01/12:30am 16.4 17.5 13.5 83 1.7 CALM 0 0 0 0 1021.0 1019.4 0.0
 
Date/Time
EST
Temp
°C
App
Temp
°C
Dew
Point
Rel
Hum
%
Delta-T
°C
Wind Press
QNH
hPa
Press
MSL
hPa
Rain
since 9 am
mm
Dir
 
Spd
km/h
Gust
km/h
Spd
kts
Gust
kts
31/11:30pm 17.2 18.4 13.9 81 1.9 CALM 0 0 0 0 1021.0 1019.4 0.0
31/11:00pm 17.9 18.2 14.6 81 1.9 N 6 7 3 4 1021.0 1019.4 0.0
31/10:30pm 18.2 18.6 14.7 80 2.1 NNE 6 7 3 4 1021.1 1019.5 0.0
31/10:00pm 18.4 18.6 14.7 79 2.2 NE 7 11 4 6 1021.1 1019.5 0.0
31/09:30pm 19.1 19.3 14.8 76 2.5 NE 7 9 4 5 1021.2 1019.6 0.0
31/09:00pm 19.5 20.0 15.0 75 2.7 E 6 7 3 4 1021.2 1019.6 0.0
31/08:00pm 20.9 20.5 15.2 70 3.4 E 11 13 6 7 1020.8 1019.2 0.0
31/07:30pm 20.9 20.0 13.8 64 4.2 ESE 11 15 6 8 1020.3 1018.7 0.0
31/07:00pm 22.0 21.6 13.1 57 5.2 ENE 7 9 4 5 1020.0 1018.4 0.0
31/06:30pm 23.2 22.7 12.8 52 6.0 N 7 9 4 5 1020.1 1018.5 0.0
31/06:00pm 24.2 22.6 12.8 49 6.6 NNE 13 15 7 8 1019.9 1018.3 0.0
31/05:30pm 25.2 24.2 12.4 45 7.5 N 9 15 5 8 1019.7 1018.1 0.0
31/05:00pm 25.2 24.1 13.1 47 7.1 NNE 11 13 6 7 1019.1 1017.5 0.0
31/04:30pm 25.6 23.7 13.1 46 7.4 NNE 15 22 8 12 1018.7 1017.1 0.0
31/04:00pm 25.8 23.9 13.0 45 7.5 NNE 15 20 8 11 1018.7 1017.1 0.0
31/03:30pm 26.4 23.9 13.5 45 7.7 NNE 19 22 10 12 1018.8 1017.2 0.0
31/03:00pm 26.4 23.6 13.2 44 7.8 NE 20 28 11 15 1018.7 1017.1 0.0
31/02:30pm 26.5 23.8 12.9 43 8.0 NNE 19 32 10 17 1019.2 1017.6 0.0
31/02:00pm 27.2 25.3 14.2 44 7.8 NNE 17 22 9 12 1019.7 1018.1 0.0
31/01:30pm 26.6 23.7 13.0 43 8.1 NNE 20 28 11 15 1020.2 1018.6 0.0
31/01:00pm 28.0 25.5 12.4 38 9.2 NNE 17 28 9 15 1020.4 1018.8 0.0
31/12:30pm 26.8 24.1 12.8 42 8.3 NNE 19 30 10 16 1021.0 1019.4 0.0
31/12:00pm 27.6 25.5 14.6 45 7.9 NNE 19 26 10 14 1021.4 1019.8 0.0
31/11:30am 25.7 23.8 14.2 49 6.9 NNE 17 24 9 13 1022.0 1020.4 0.0
31/11:00am 25.2 22.8 13.7 49 6.8 NNE 19 26 10 14 1022.4 1020.8 0.0
31/10:30am 26.2 24.3 15.3 51 6.7 NNE 19 28 10 15 1022.5 1020.9 0.0
31/10:00am 24.6 22.5 14.7 54 6.0 NNE 19 28 10 15 1022.9 1021.3 0.0
31/09:30am 24.2 23.4 16.2 61 4.9 NNE 15 22 8 12 1022.8 1021.2 0.0
31/09:00am 22.6 22.7 16.4 68 3.8 NE 11 15 6 8 1023.0 1021.4 1.8
31/08:30am 21.2 21.0 16.6 75 2.8 NE 13 15 7 8 1022.8 1021.2 1.8
31/08:00am 20.6 20.9 17.0 80 2.2 ENE 11 17 6 9 1021.9 1020.3 1.8
31/07:30am 19.8 20.9 17.2 85 1.6 NE 7 9 4 5 1021.7 1020.1 1.8
31/07:00am 18.1 20.4 16.8 92 0.8 CALM 0 0 0 0 1021.3 1019.7 1.8
31/06:30am 17.8 20.1 16.7 93 0.7 CALM 0 0 0 0 1020.8 1019.2 1.8
31/06:00am 17.9 19.4 16.6 92 0.8 ENE 4 6 2 3 1020.6 1018.9 1.8
31/05:49am 18.0 19.0 16.9 93 0.7 ENE 7 9 4 5 1020.4 1018.8 1.8
31/05:30am 17.9 18.9 16.8 93 0.7 E 7 9 4 5 1020.2 1018.6 1.8
31/05:00am 17.8 18.8 16.3 91 0.9 ESE 6 7 3 4 1020.3 1018.7 1.8
31/04:30am 18.0 19.1 16.5 91 0.9 SE 6 7 3 4 1020.0 1018.4 1.8
31/04:29am 18.1 19.2 16.6 91 0.9 SE 6 7 3 4 1020.0 1018.4 1.8
31/04:00am 18.5 19.6 17.0 91 0.9 ENE 7 9 4 5 1019.9 1018.3 1.8
31/03:30am 18.8 20.0 17.3 91 0.9 SE 7 9 4 5 1020.1 1018.5 1.8
31/03:00am 19.0 20.5 17.5 91 0.9 SE 6 9 3 5 1020.0 1018.4 1.8
31/02:30am 19.2 20.7 17.7 91 0.9 SSE 6 7 3 4 1020.4 1018.8 1.8
31/02:00am 19.3 21.3 17.8 91 0.9 SSE 4 7 2 4 1020.6 1018.9 1.8
31/01:30am 19.3 20.3 17.8 91 0.9 S 9 11 5 6 1020.6 1018.9 1.8
31/01:00am 19.2 20.7 17.7 91 0.9 E 6 7 3 4 1020.6 1018.9 1.8
31/12:30am 19.2 21.1 17.7 91 0.9 ESE 4 9 2 5 1021.0 1019.4 1.8
31/12:00am 19.2 20.7 17.7 91 0.9 E 6 7 3 4 1021.5 1019.9 1.8
 
Date/Time
EST
Temp
°C
App
Temp
°C
Dew
Point
Rel
Hum
%
Delta-T
°C
Wind Press
QNH
hPa
Press
MSL
hPa
Rain
since 9 am
mm
Dir
 
Spd
km/h
Gust
km/h
Spd
kts
Gust
kts
30/11:30pm 19.4 22.1 17.7 90 1.1 CALM 0 4 0 2 1021.8 1020.2 1.8
30/11:00pm 19.4 20.5 17.9 91 0.9 N 9 9 5 5 1022.1 1020.5 1.8
30/10:30pm 19.4 20.9 17.5 89 1.2 NNW 6 7 3 4 1022.4 1020.8 1.8
30/10:00pm 19.5 20.9 17.8 90 1.1 N 7 9 4 5 1022.7 1021.1 1.8
30/09:30pm 19.5 20.5 17.8 90 1.1 WNW 9 11 5 6 1023.1 1021.5 1.8
30/09:00pm 19.6 21.9 17.7 89 1.2 NNW 2 6 1 3 1022.7 1021.1 1.8
30/08:30pm 19.5 21.0 17.6 89 1.2 NNE 6 9 3 5 1022.4 1020.8 1.8
30/08:00pm 19.5 20.8 17.6 89 1.2 N 7 11 4 6 1022.2 1020.6 1.6
30/07:30pm 19.5 20.4 17.6 89 1.2 NE 9 11 5 6 1021.9 1020.3 1.4
30/07:00pm 19.5 21.3 17.5 88 1.2 S 4 7 2 4 1022.0 1020.4 1.4
30/06:30pm 19.6 21.1 17.6 88 1.2 SSW 6 7 3 4 1021.9 1020.3 1.4
30/06:00pm 19.6 21.1 17.6 88 1.2 SE 6 9 3 5 1021.7 1020.1 1.4
30/05:30pm 19.6 19.8 17.7 89 1.2 S 13 19 7 10 1021.8 1020.2 1.4
30/05:15pm 19.5 18.9 17.6 89 1.2 S 17 24 9 13 1021.6 1020.0 1.2
30/05:00pm 19.6 19.1 17.7 89 1.2 S 17 26 9 14 1021.6 1020.0 1.0
30/04:39pm 19.9 18.9 18.0 89 1.2 SSW 20 28 11 15 1021.7 1020.1 0.8
30/04:30pm 19.9 19.1 18.0 89 1.2 S 19 26 10 14 1021.4 1019.8 0.6
30/04:00pm 20.2 19.2 18.0 87 1.4 SSE 20 32 11 17 1020.8 1019.2 0.0
30/03:47pm 20.7 17.9 17.3 81 2.1 S 28 46 15 25 1020.7 1019.1 0.0
30/03:30pm 22.2 18.3 15.5 66 4.1 S 30 43 16 23 1020.4 1018.8 0.0
30/03:25pm 23.3 20.8 14.0 56 5.5 SSE 20 41 11 22 1020.3 1018.7 0.0
30/03:00pm 28.6 25.5 10.3 32 10.4 E 17 26 9 14 1019.5 1017.9 0.0
30/02:30pm 29.2 26.3 9.8 30 11.0 NE 15 20 8 11 1019.4 1017.8 0.0
30/02:00pm 30.1 26.4 10.1 29 11.5 NE 20 32 11 17 1019.3 1017.7 0.0
30/01:30pm 29.4 25.4 10.5 31 10.9 ENE 22 33 12 18 1019.5 1017.9 0.0
30/01:00pm 30.3 27.1 11.8 32 10.9 NNE 20 30 11 16 1019.9 1018.3 0.0
30/12:30pm 29.9 26.7 11.4 32 10.8 NNE 19 28 10 15 1020.8 1019.2 0.0
30/12:00pm 28.5 25.3 11.1 34 10.0 NNE 19 26 10 14 1021.5 1019.9 0.0
30/11:30am 28.3 24.4 10.9 34 10.0 NNE 22 30 12 16 1022.0 1020.4 0.0
30/11:00am 28.6 25.2 12.5 37 9.5 NNE 22 32 12 17 1022.5 1020.9 0.0
30/10:30am 27.2 22.8 11.7 38 9.0 NNE 26 35 14 19 1022.7 1021.1 0.0
30/10:00am 25.1 20.5 10.9 41 8.0 NE 26 35 14 19 1022.8 1021.2 0.0
30/09:30am 25.6 20.6 11.0 40 8.3 NE 28 37 15 20 1023.3 1021.7 0.0
30/09:00am 24.8 21.3 11.0 42 7.8 NNE 20 28 11 15 1023.7 1022.2 0.0
30/08:30am 24.6 20.3 10.8 42 7.8 NNE 24 33 13 18 1023.4 1021.8 0.0
30/08:00am 23.3 20.2 12.3 50 6.3 NNE 20 28 11 15 1023.1 1021.5 0.0
30/07:30am 22.4 20.9 13.2 56 5.4 NE 13 19 7 10 1022.5 1020.9 0.0
30/07:00am 21.5 20.9 14.6 65 4.1 NE 11 13 6 7 1021.9 1020.3 0.0
30/06:30am 21.4 19.8 15.0 67 3.8 NE 17 22 9 12 1021.5 1019.9 0.0
30/06:00am 21.2 20.8 15.3 69 3.5 NE 11 15 6 8 1021.4 1019.8 0.0
30/05:30am 21.3 20.4 14.9 67 3.8 NNE 13 19 7 10 1020.7 1019.1 0.0
30/05:00am 21.2 19.8 14.6 66 3.9 NNE 15 24 8 13 1020.3 1018.7 0.0
30/04:30am 21.6 19.5 14.7 65 4.1 NNE 19 26 10 14 1020.2 1018.6 0.0
30/04:00am 22.0 19.9 14.6 63 4.4 NNE 19 28 10 15 1019.9 1018.3 0.0
30/03:30am 22.4 19.7 14.5 61 4.7 NNE 22 32 12 17 1019.6 1018.0 0.0
30/03:00am 22.5 20.0 15.1 63 4.4 NNE 22 33 12 18 1019.6 1018.0 0.0
30/02:30am 22.7 20.4 15.8 65 4.2 NNE 22 30 12 16 1019.6 1018.0 0.0
30/02:00am 22.9 21.2 16.2 66 4.1 NNE 20 30 11 16 1019.9 1018.3 0.0
30/01:30am 23.0 21.4 16.5 67 4.0 NNE 20 28 11 15 1020.1 1018.5 0.0
30/01:00am 23.6 22.0 16.6 65 4.3 NNE 20 28 11 15 1020.1 1018.5 0.0
30/12:30am 24.0 22.3 16.3 62 4.8 NNE 20 28 11 15 1020.4 1018.8 0.0
30/12:00am 24.4 22.6 16.1 60 5.1 NNE 20 28 11 15 1020.4 1018.8 0.0
 
Date/Time
EST
Temp
°C
App
Temp
°C
Dew
Point
Rel
Hum
%
Delta-T
°C
Wind Press
QNH
hPa
Press
MSL
hPa
Rain
since 9 am
mm
Dir
 
Spd
km/h
Gust
km/h
Spd
kts
Gust
kts
29/11:30pm 24.5 22.8 15.7 58 5.4 NNE 19 24 10 13 1021.0 1019.4 0.0
29/11:00pm 24.8 23.5 15.7 57 5.6 NNE 17 26 9 14 1020.9 1019.3 0.0
29/10:30pm 24.2 24.3 15.4 58 5.4 NNE 9 11 5 6 1021.2 1019.6 0.0
29/10:00pm 23.9 23.9 15.1 58 5.3 N 9 13 5 7 1021.1 1019.5 0.0
29/09:30pm 24.1 23.7 15.1 57 5.5 NNE 11 13 6 7 1021.0 1019.4 0.0
29/09:00pm 24.3 23.9 12.9 49 6.7 NNE 7 9 4 5 1021.1 1019.5 0.0
29/08:30pm 24.3 23.5 12.9 49 6.7 N 9 11 5 6 1020.7 1019.1 0.0
29/08:00pm 24.6 23.3 12.5 46 7.0 NE 11 11 6 6 1020.2 1018.6 0.0
29/07:30pm 25.1 25.3 13.0 47 7.1 ENE 4 6 2 3 1019.8 1018.2 0.0
29/07:00pm 25.2 24.2 12.4 45 7.4 E 9 9 5 5 1019.5 1017.9 0.0
29/06:30pm 26.9 25.9 12.2 40 8.6 ESE 9 9 5 5 1019.2 1017.6 0.0
29/06:00pm 27.9 26.8 11.9 37 9.3 E 9 9 5 5 1018.9 1017.3 0.0
29/05:30pm 29.7 28.5 11.7 33 10.6 E 9 13 5 7 1018.7 1017.1 0.0
29/05:00pm 31.4 30.4 12.2 30 11.4 E 9 17 5 9 1018.4 1016.8 0.0
29/04:30pm 30.8 29.4 12.2 32 11.1 ESE 11 15 6 8 1018.4 1016.8 0.0
29/04:00pm 32.5 30.3 13.2 31 11.7 ESE 17 22 9 12 1018.4 1016.8 0.0
29/03:30pm 32.3 30.8 13.0 31 11.7 E 13 24 7 13 1018.4 1016.8 0.0
29/03:00pm 32.3 31.0 12.5 30 11.9 ESE 11 17 6 9 1018.6 1017.0 0.0
29/02:30pm 32.4 31.3 12.1 29 12.1 S 9 15 5 8 1019.0 1017.4 0.0
29/02:00pm 31.3 30.4 12.6 31 11.2 S 9 15 5 8 1019.3 1017.7 0.0
29/01:30pm 30.1 29.7 12.5 34 10.5 ENE 6 11 3 6 1019.8 1018.2 0.0
29/01:00pm 30.2 28.8 13.5 36 10.1 N 13 20 7 11 1020.2 1018.6 0.0
29/12:30pm 31.1 29.8 14.7 37 10.1 NE 15 24 8 13 1020.7 1019.1 0.0
29/12:00pm 30.3 28.7 16.0 42 9.0 N 19 26 10 14 1021.1 1019.5 0.0
29/11:30am 30.3 28.9 17.0 44 8.5 NNE 20 28 11 15 1021.5 1019.9 0.0
29/11:00am 28.8 27.5 17.3 49 7.3 N 20 33 11 18 1021.8 1020.2 0.0
29/10:30am 27.3 25.9 16.9 53 6.6 N 20 30 11 16 1021.9 1020.3 0.0
29/10:00am 27.1 25.6 17.8 56 5.9 N 22 50 12 27 1022.1 1020.5 0.0

Other Formats:

Comma delimited format used in spreadsheet applications
http://www.bom.gov.au/fwo/IDQ60801/IDQ60801.94515.axf

JavaScript Object Notation format (JSON) in row-major order
http://www.bom.gov.au/fwo/IDQ60801/IDQ60801.94515.json